Date,TemperatureHighF,TemperatureAvgF,TemperatureLowF,DewpointHighF,DewpointAvgF,DewpointLowF,HumidityHigh,HumidityAvg,HumidityLow,PressureMaxIn,PressureMinIn,WindSpeedMaxMPH,WindSpeedAvgMPH,GustSpeedMaxMPH,PrecipitationSumIn
2013-1-1,49.6,43.2,36.0,49.3,42.5,35.5,100,97,86,30.22,30.07,15,1,15,1.09
2013-1-2,36.1,32.7,31.1,35.8,32.1,29.8,100,98,95,30.43,30.19,12,2,12,0.01
2013-1-3,41.8,31.6,24.5,32.3,28.1,23.0,96,88,64,30.62,30.38,13,1,13,0.00
2013-1-4,43.9,29.6,20.4,31.0,24.5,19.1,97,83,51,30.72,30.60,12,1,12,0.00
2013-1-5,45.6,34.8,21.4,36.1,27.3,20.2,96,77,46,30.65,30.44,6,0,7,0.01
2013-1-6,49.4,40.1,28.8,38.2,34.8,25.9,96,82,61,30.51,30.28,17,1,17,0.00
2013-1-7,38.9,27.7,23.8,31.3,25.2,21.7,94,90,74,30.61,30.47,5,0,5,0.00
2013-1-8,59.9,43.2,26.3,43.9,36.7,24.4,96,79,52,30.56,30.39,12,1,12,0.00
2013-1-9,59.3,53.8,43.8,58.5,52.9,41.2,99,97,89,30.49,30.40,10,1,10,0.41
2013-1-10,64.8,59.8,53.6,60.5,57.4,53.2,99,92,85,30.45,30.03,23,3,23,0.03
2013-1-11,69.3,64.8,61.5,63.3,61.5,60.0,98,89,78,30.08,29.98,23,4,23,0.04
2013-1-12,67.5,65.5,63.8,66.1,63.1,59.8,99,92,81,30.03,29.85,16,2,16,0.16
2013-1-13,68.7,58.3,36.4,64.0,55.6,35.4,97,91,80,30.19,29.81,15,5,20,0.97
2013-1-14,38.0,34.2,31.9,36.7,33.2,30.7,99,96,93,30.50,30.18,20,4,20,0.50
2013-1-15,37.3,35.0,32.9,36.8,34.4,32.4,99,98,97,30.41,30.11,17,4,17,1.14
2013-1-16,36.9,35.6,34.2,36.4,35.0,33.4,98,98,97,30.29,30.10,11,2,11,0.36
2013-1-17,41.5,37.0,32.2,36.2,32.6,29.8,98,84,74,30.55,30.08,28,7,28,0.01
2013-1-18,26.7,26.6,26.4,25.2,24.7,24.2,94,93,90,30.61,30.59,0,0,0,0.01
2013-1-19,53.3,39.8,26.0,34.6,29.8,24.1,94,70,42,30.61,30.35,15,2,18,0.00
2013-1-20,55.7,38.9,28.1,38.8,31.1,26.5,96,76,39,30.40,30.29,11,1,11,0.00
2013-1-21,41.1,30.7,23.5,27.0,21.1,15.1,95,70,41,30.50,30.30,12,1,16,0.00
2013-1-22,32.0,26.1,20.1,16.5,12.0,8.0,76,55,39,30.66,30.48,11,1,12,0.00
2013-1-23,51.4,37.6,28.5,37.3,24.7,12.9,88,60,45,30.62,30.34,13,1,14,0.00
2013-1-24,43.2,33.5,27.7,37.8,21.1,10.8,85,61,37,30.60,30.36,20,4,20,0.00
2013-1-25,42.0,37.6,31.2,41.5,32.3,13.4,98,83,41,30.48,30.25,17,2,17,0.58
2013-1-26,47.7,35.4,29.2,35.9,31.2,27.4,97,86,53,30.53,30.38,11,1,11,0.00
2013-1-27,49.9,41.8,27.5,42.4,35.4,26.3,98,79,59,30.56,30.41,17,3,17,0.01
2013-1-28,57.8,52.6,46.3,52.1,46.4,36.2,92,80,65,30.42,30.23,15,4,15,0.00
2013-1-29,67.3,60.0,50.5,62.5,57.2,48.3,95,91,84,30.24,29.67,21,5,21,0.00
2013-1-30,69.2,52.6,35.0,63.8,49.1,26.6,98,88,69,29.93,29.46,34,5,34,1.58
2013-1-31,44.3,37.1,30.9,34.8,27.1,23.4,86,67,50,30.33,29.93,21,3,24,0.00
2013-2-1,36.6,24.4,17.7,31.9,17.6,11.1,94,75,56,30.69,30.33,18,2,18,0.01
2013-2-2,45.1,30.7,20.6,34.6,26.4,17.8,96,84,65,30.60,30.30,14,1,14,0.04
2013-2-3,49.7,36.8,25.2,36.1,30.2,23.4,98,79,47,30.34,30.21,19,2,19,0.01
2013-2-4,53.7,39.5,24.1,35.9,27.8,22.4,96,67,32,30.31,30.08,17,2,17,0.00
2013-2-5,61.4,46.6,34.6,47.0,40.6,33.2,98,81,51,30.16,30.01,11,0,11,0.05
2013-2-6,61.6,43.7,28.4,41.9,35.1,27.6,98,76,39,30.34,30.16,11,0,11,0.01
2013-2-7,59.1,49.6,41.3,47.7,43.1,37.3,97,79,58,30.23,29.99,17,1,17,0.00
2013-2-8,47.0,41.4,35.5,46.5,38.8,30.5,98,90,80,30.44,29.93,20,4,20,0.17
2013-2-9,57.2,41.9,30.7,36.1,32.2,27.7,92,71,42,30.52,30.30,19,2,20,0.00
2013-2-10,57.3,52.5,46.2,54.8,42.7,33.0,97,72,47,30.32,29.93,28,6,28,0.60
2013-2-11,58.4,50.2,35.9,57.2,43.0,32.5,97,78,50,30.22,29.98,13,1,13,0.01
2013-2-12,52.3,44.4,35.3,40.7,35.4,31.1,94,73,46,30.28,29.88,14,2,17,0.02
2013-2-13,44.7,40.4,37.8,43.1,38.3,35.2,98,92,78,30.15,29.75,20,1,20,0.12
2013-2-14,57.6,41.5,28.2,41.4,34.6,27.3,98,79,44,30.24,30.13,14,1,14,0.01
2013-2-15,51.1,39.0,29.4,41.5,33.0,25.5,98,80,62,30.29,30.17,17,1,17,0.00
2013-2-16,36.6,29.8,19.2,25.6,19.5,11.2,84,66,48,30.42,30.24,21,2,21,0.00
2013-2-17,45.6,30.3,15.3,22.6,18.3,12.4,92,64,35,30.56,30.42,14,1,14,0.00
2013-2-18,59.6,47.1,33.2,40.9,30.0,21.4,87,52,38,30.44,29.99,25,6,26,0.14
2013-2-19,49.7,42.5,26.3,44.4,29.8,15.3,96,65,28,30.36,29.96,25,3,25,0.07
2013-2-20,35.2,29.2,22.7,21.2,18.6,15.5,90,65,46,30.51,30.35,13,2,13,0.00
2013-2-21,56.6,40.5,26.7,43.8,27.8,18.6,94,65,25,30.44,30.01,20,3,20,0.52
2013-2-22,51.6,48.7,45.3,48.0,46.1,43.8,96,91,86,30.15,29.99,20,4,20,0.00
2013-2-23,54.7,44.3,31.5,45.0,39.9,29.2,98,86,58,30.09,29.94,9,1,9,0.00
2013-2-24,53.7,40.3,26.9,33.1,28.5,25.4,96,66,37,30.24,30.07,17,3,17,0.01
2013-2-25,61.0,47.0,31.7,46.1,34.6,25.3,92,64,37,30.12,29.60,32,5,32,0.07
2013-2-26,50.0,45.2,38.7,47.5,41.5,35.2,95,87,71,29.82,29.45,34,6,34,0.12
2013-2-27,45.0,39.7,35.9,36.2,34.1,31.2,90,80,68,30.04,29.82,18,2,18,0.00
2013-2-28,37.3,35.6,32.7,32.2,29.2,27.1,87,78,69,30.21,29.97,8,1,14,0.01
2013-3-1,36.2,34.2,32.3,32.6,31.0,28.4,96,88,78,30.22,30.15,12,0,12,0.01
2013-3-2,34.1,31.2,28.5,31.3,29.0,25.7,96,91,85,30.32,30.17,16,2,16,0.07
2013-3-3,40.1,30.5,25.1,26.0,22.7,17.2,93,74,43,30.36,30.29,15,2,15,0.04
2013-3-4,55.4,43.1,25.8,37.5,28.1,22.5,89,59,37,30.37,30.01,17,3,17,0.00
2013-3-5,56.1,52.7,31.4,53.7,46.2,21.8,96,79,55,30.07,29.80,19,5,20,0.72
2013-3-6,39.2,33.5,30.4,31.2,26.7,22.1,86,76,67,30.49,30.07,26,4,26,0.00
2013-3-7,41.1,33.5,29.5,32.7,28.6,26.5,89,82,70,30.58,30.47,18,5,18,0.00
2013-3-8,56.1,40.2,24.4,32.8,26.8,18.2,95,64,25,30.59,30.41,16,3,16,0.00
2013-3-9,63.9,51.3,35.5,37.0,33.3,29.0,88,53,31,30.41,30.13,17,2,17,0.00
2013-3-10,69.0,62.0,54.2,46.8,38.7,33.4,52,42,32,30.16,29.83,24,8,27,0.00
2013-3-11,63.5,50.9,38.5,52.4,45.0,32.2,97,82,51,30.01,29.71,28,4,28,0.98
2013-3-12,53.4,42.0,33.7,36.2,32.1,29.3,85,69,46,30.28,30.01,15,2,15,0.00
2013-3-13,45.7,35.8,28.6,29.6,25.7,21.3,95,69,41,30.57,30.26,21,3,21,0.00
2013-3-14,50.7,35.2,19.8,36.4,23.5,17.0,93,67,28,30.65,30.43,15,1,15,0.04
2013-3-15,72.7,52.6,31.2,49.6,40.4,29.9,97,67,41,30.43,29.96,22,2,22,0.01
2013-3-16,74.0,63.6,54.8,53.7,48.8,44.1,70,59,43,29.97,29.78,21,2,21,0.00
2013-3-17,71.1,61.2,50.6,55.3,50.2,47.3,90,68,47,29.92,29.79,18,2,18,0.00
2013-3-18,62.6,58.2,46.1,59.5,54.9,42.7,97,89,72,29.97,29.67,18,3,18,1.04
2013-3-19,55.4,45.3,31.9,43.0,30.9,17.6,98,63,27,30.27,29.97,18,3,18,0.01
2013-3-20,53.3,41.4,29.7,31.5,27.0,17.8,87,60,30,30.28,30.06,23,2,23,0.00
2013-3-21,42.1,31.7,20.7,25.1,18.3,13.5,83,59,36,30.24,30.12,14,2,14,0.00
2013-3-22,47.2,40.3,31.9,36.8,28.1,20.7,82,62,50,30.22,30.11,9,1,9,0.01
2013-3-23,55.9,47.7,41.1,49.5,44.1,36.5,96,87,74,30.11,29.77,12,1,12,0.28
2013-3-24,61.6,50.1,36.2,54.9,46.0,27.8,99,86,67,29.78,29.37,27,4,29,0.54
2013-3-25,36.2,33.0,30.9,29.2,26.9,25.2,91,78,69,30.30,29.77,25,4,26,0.00
2013-3-26,36.6,33.3,30.3,31.7,28.7,27.0,94,83,71,30.55,30.29,14,2,14,0.04
2013-3-27,49.9,37.1,24.4,32.2,28.2,22.9,96,73,43,30.61,30.48,16,1,16,0.00
2013-3-28,57.6,41.4,25.5,37.0,31.0,24.0,96,70,41,30.57,30.43,19,1,19,0.00
2013-3-29,56.8,46.7,35.3,45.8,39.1,32.8,94,77,48,30.47,30.28,8,1,8,0.01
2013-3-30,65.0,52.7,42.0,54.0,46.8,40.4,98,83,48,30.30,29.98,12,1,13,0.30
2013-3-31,57.5,54.2,47.1,56.4,53.1,46.3,98,96,90,29.97,29.87,7,1,11,0.14
2013-4-1,63.2,50.1,39.7,51.4,43.4,36.5,100,80,46,30.20,29.93,15,1,15,0.01
2013-4-2,49.1,43.1,34.6,36.2,29.3,24.3,85,59,41,30.37,30.20,15,2,16,0.00
2013-4-3,54.9,47.5,39.2,31.9,27.2,22.6,67,46,32,30.37,30.23,20,6,20,0.00
2013-4-4,49.0,45.1,42.8,44.8,41.6,29.5,97,89,48,30.24,30.06,13,1,13,1.41
2013-4-5,64.6,51.1,41.4,45.5,41.3,34.4,100,74,36,30.21,30.08,17,2,17,0.03
2013-4-6,72.0,55.4,35.3,48.7,39.4,34.2,98,61,29,30.25,30.06,17,2,17,0.00
2013-4-7,70.8,59.4,46.4,51.2,46.1,39.9,83,63,44,30.13,29.99,21,2,21,0.00
2013-4-8,76.7,63.3,47.2,58.7,53.1,45.3,95,71,47,30.08,29.94,20,2,22,0.00
2013-4-9,79.3,68.0,52.1,63.3,57.2,49.8,95,70,50,30.13,29.93,18,2,18,0.00
2013-4-10,84.3,72.4,56.5,61.5,57.8,53.3,91,62,36,30.01,29.74,20,2,20,0.00
2013-4-11,76.2,69.4,55.3,65.4,59.9,54.2,97,72,62,29.76,29.50,24,4,24,1.03
2013-4-12,64.1,51.9,43.9,53.8,43.5,37.5,97,76,44,30.04,29.60,17,2,17,0.03
2013-4-13,69.2,52.0,38.1,46.9,41.0,36.8,98,71,33,30.18,30.03,12,1,12,0.00
2013-4-14,68.3,54.9,42.7,54.2,47.0,39.8,97,78,37,30.07,29.88,18,2,18,0.03
2013-4-15,79.5,66.6,56.3,61.0,57.2,52.5,93,74,46,30.01,29.90,15,2,15,0.00
2013-4-16,78.6,70.6,64.5,67.5,63.5,59.0,89,78,67,30.11,29.99,14,3,14,0.00
2013-4-17,85.9,71.5,62.5,70.3,64.6,60.7,96,81,51,30.11,29.93,19,2,19,0.00
2013-4-18,80.3,72.4,63.4,63.3,60.9,57.3,91,69,48,29.94,29.54,22,5,22,0.00
2013-4-19,73.5,49.6,35.9,65.4,44.1,32.9,98,82,59,30.22,29.50,25,3,25,1.34
2013-4-20,59.9,45.5,30.6,40.8,33.9,29.4,98,69,34,30.42,30.21,18,1,18,0.00
2013-4-21,67.3,51.7,36.3,45.2,39.0,34.7,100,67,33,30.47,30.30,21,1,21,0.00
2013-4-22,72.1,58.3,43.8,48.3,43.8,39.5,92,62,32,30.34,30.13,17,1,17,0.00
2013-4-23,73.6,59.7,45.1,54.5,48.6,41.4,97,70,46,30.20,30.00,16,2,16,0.00
2013-4-24,65.5,55.3,44.5,59.2,50.6,39.3,97,85,72,30.32,29.90,18,2,19,0.39
2013-4-25,63.9,50.3,40.3,41.6,37.4,31.3,91,65,31,30.49,30.31,16,2,16,0.00
2013-4-26,66.8,52.8,37.2,49.5,42.4,35.9,97,72,34,30.49,30.32,17,2,17,0.66
2013-4-27,60.4,54.7,50.2,57.7,53.4,49.4,100,95,87,30.43,30.01,14,2,14,1.71
2013-4-28,61.9,59.0,56.4,61.4,58.2,55.6,99,97,89,30.02,29.91,13,1,13,0.78
2013-5-2,62.8,62.4,62.0,57.0,56.8,56.2,83,82,81,30.05,30.03,5,0,5,0.00
2013-5-3,70.5,64.4,59.6,59.0,56.3,54.7,86,75,61,30.03,29.83,29,4,29,0.01
2013-5-4,60.5,48.3,43.8,55.5,47.2,42.9,98,96,81,30.01,29.80,17,0,17,1.74
2013-5-5,59.8,52.4,45.2,53.3,49.8,44.7,99,91,75,29.95,29.82,13,1,13,0.78
2013-5-6,58.4,51.9,44.5,51.2,48.6,43.8,99,89,68,29.96,29.78,12,0,12,0.61
2013-5-7,69.8,55.2,41.9,57.7,50.5,41.4,100,86,60,30.05,29.94,11,1,11,0.01
2013-5-8,76.3,59.8,47.8,63.5,54.7,47.5,100,85,54,30.07,29.98,13,1,13,0.00
2013-5-10,64.2,62.1,61.5,61.2,60.7,60.3,97,95,90,29.94,29.92,1,0,1,0.45
2013-5-11,50.8,50.8,50.8,50.0,50.0,50.0,97,97,97,30.01,30.01,0,0,0,0.49
2013-5-12,62.4,53.9,41.6,52.4,39.8,31.7,98,61,37,30.22,30.01,18,2,18,0.00
2013-5-13,67.3,52.0,35.9,47.6,39.3,34.8,98,68,34,30.36,30.21,14,1,14,0.00
2013-5-14,80.5,63.2,42.5,62.0,52.8,41.4,97,72,46,30.27,30.03,12,1,21,0.00
2013-5-15,82.9,69.0,54.9,62.5,57.3,53.8,99,70,38,30.11,29.93,11,1,14,0.00
2013-5-16,82.3,68.9,56.9,65.9,59.8,55.3,97,75,46,30.00,29.88,10,0,10,0.00
2013-5-17,64.4,61.9,59.9,63.5,60.0,57.1,97,93,88,29.98,29.93,7,0,7,0.34
2013-5-18,81.5,69.9,64.0,71.5,66.8,63.1,100,91,66,29.98,29.88,11,0,11,0.52
2013-5-19,83.4,71.7,61.4,75.0,67.6,60.4,100,88,69,29.95,29.85,23,1,23,0.09
2013-5-20,81.4,70.0,59.2,71.2,65.5,58.5,100,87,65,30.02,29.89,11,0,11,0.00
2013-5-21,85.5,71.5,61.3,74.6,67.1,60.6,100,87,61,29.94,29.75,19,1,19,0.00
2013-5-22,77.1,67.4,63.6,70.5,65.4,62.7,99,93,74,29.85,29.75,13,0,13,0.28
2013-5-23,63.5,61.4,59.4,62.9,60.9,59.1,99,98,97,29.89,29.82,0,0,0,0.00
2013-5-27,83.3,76.5,65.6,67.5,63.1,60.7,90,64,49,30.06,29.99,13,1,15,0.00
2013-5-28,84.5,72.8,62.0,66.5,62.0,58.8,94,71,46,30.07,29.96,14,1,14,0.00
2013-5-29,84.7,75.1,64.0,70.3,64.6,59.2,86,70,55,30.08,29.96,13,0,13,0.00
2013-5-30,82.0,75.6,67.0,72.5,67.4,61.9,86,76,66,30.07,29.94,14,1,14,0.00
2013-6-1,82.2,74.0,66.9,74.5,69.7,66.3,98,87,71,29.87,29.76,19,1,19,0.20
2013-6-2,76.1,69.7,65.4,70.4,67.7,64.8,100,93,77,29.87,29.78,16,0,16,0.58
2013-6-3,77.8,68.6,60.0,66.7,62.8,58.7,99,83,54,29.95,29.84,12,1,12,0.09
2013-6-4,74.5,60.9,56.0,66.1,59.1,55.5,99,94,74,29.99,29.93,5,0,5,0.01
2013-6-5,67.4,67.1,67.0,66.8,66.5,66.4,98,98,98,29.81,29.80,1,0,1,0.15
2013-6-6,71.8,66.8,65.3,69.0,66.1,65.0,99,98,91,29.80,29.65,2,0,2,0.04
2013-6-7,78.0,69.5,63.3,70.0,66.6,62.4,100,91,68,29.80,29.63,9,0,9,0.02
2013-6-8,78.8,66.7,59.8,68.0,63.1,59.4,100,89,55,29.95,29.79,8,0,8,0.01
2013-6-10,69.4,68.6,67.2,68.5,67.9,66.9,99,98,97,29.87,29.82,1,0,8,0.03
2013-6-11,79.9,70.5,65.9,75.2,69.6,65.5,100,97,84,29.95,29.87,7,0,7,0.47
2013-6-12,89.6,78.8,70.2,79.0,73.5,69.9,100,85,57,29.96,29.80,7,0,11,0.00
2013-6-13,86.3,76.8,69.1,78.7,71.9,65.4,99,85,69,29.82,29.65,19,1,19,0.07
2013-6-14,80.5,70.6,60.5,65.3,61.7,56.1,98,76,48,29.96,29.80,14,2,14,0.00
2013-6-15,85.2,71.7,57.7,70.3,64.5,57.1,99,80,53,30.05,29.94,12,0,12,0.00
2013-6-16,85.1,73.5,64.0,75.5,68.8,63.1,99,86,61,30.02,29.87,11,0,13,0.02
2013-6-17,81.5,70.0,66.5,76.2,68.9,65.9,100,96,77,29.94,29.82,18,0,18,3.37
2013-6-18,77.4,70.3,64.0,71.6,67.7,63.3,100,92,69,29.89,29.75,15,1,15,0.73
2013-6-19,84.8,72.3,60.5,73.8,67.3,60.2,100,86,55,29.99,29.87,12,0,12,0.00
2013-6-20,87.0,73.7,64.0,74.4,68.3,63.7,100,85,59,30.10,29.99,16,0,16,0.04
2013-6-21,82.8,70.5,62.3,72.6,66.7,62.0,99,89,67,30.16,30.08,8,0,8,0.00
2013-6-22,84.5,78.4,67.1,73.1,69.2,66.2,97,75,56,30.14,29.98,9,0,9,0.00
2013-6-23,85.4,73.6,62.1,74.9,68.6,61.8,99,86,59,30.10,29.97,8,0,8,0.00
2013-6-24,86.9,76.3,64.9,75.4,70.7,64.6,100,84,60,30.10,29.96,9,0,13,0.06
2013-6-25,74.4,73.1,72.4,72.6,72.0,71.5,97,96,94,29.91,29.90,0,0,1,0.05
2013-6-26,87.7,78.0,69.2,77.6,72.6,68.8,100,85,63,29.93,29.73,13,1,13,0.00
2013-6-27,89.0,78.2,70.5,80.6,72.7,66.8,97,84,64,29.80,29.66,18,1,18,0.00
2013-6-28,83.3,75.3,67.6,76.8,71.8,67.0,100,90,70,29.71,29.53,14,0,14,0.20
2013-6-29,82.5,70.8,63.5,71.6,66.7,62.8,100,88,55,29.59,29.56,11,0,11,0.00
2013-6-30,82.7,73.5,62.9,72.0,66.7,62.0,97,81,53,29.70,29.57,7,0,9,0.01
2013-7-1,80.8,70.5,61.1,70.4,66.2,60.5,100,87,63,29.82,29.67,10,0,10,0.03
2013-7-2,80.7,70.8,61.6,71.2,65.8,61.2,100,86,63,29.97,29.80,13,0,13,0.00
2013-7-3,80.3,69.7,64.3,72.6,67.6,63.4,99,93,73,30.06,29.95,7,0,7,1.01
2013-7-4,72.2,68.7,66.8,71.9,68.3,66.2,99,99,97,30.06,29.96,7,0,7,2.06
2013-7-5,76.0,70.9,67.9,73.0,69.6,67.6,100,96,86,30.08,29.98,12,0,12,0.21
2013-7-6,70.4,68.6,66.4,70.1,68.4,66.0,100,99,97,30.08,30.00,7,0,8,1.68
2013-7-7,83.3,76.8,67.6,75.4,72.4,67.6,100,87,69,30.07,30.00,7,0,7,0.03
2013-7-8,87.6,76.5,69.4,78.0,72.8,69.1,100,89,66,30.10,29.97,8,0,8,0.00
2013-7-9,88.3,78.3,70.3,77.6,73.5,70.0,100,87,59,30.06,29.92,10,0,10,0.01
2013-7-10,89.3,78.7,70.6,80.2,74.5,69.6,100,88,68,29.96,29.74,17,0,17,0.00
2013-7-11,86.3,75.6,68.6,78.6,72.3,68.3,100,90,67,29.86,29.76,8,0,9,0.35
2013-7-12,80.0,72.3,62.6,70.5,66.1,60.2,98,82,61,29.92,29.80,16,3,16,0.00
2013-7-13,82.0,67.8,59.4,72.1,63.6,58.5,98,87,62,29.98,29.89,12,0,12,0.00
2013-7-14,82.2,72.8,67.7,75.7,70.4,66.8,98,93,78,30.10,29.96,14,1,14,0.08
2013-7-15,85.3,73.3,70.4,73.6,70.4,68.2,98,91,68,30.18,30.08,14,1,14,0.01
2013-7-16,72.0,69.6,68.0,71.7,69.1,67.5,99,98,98,30.19,30.16,0,0,0,0.27
2013-7-17,90.2,78.3,68.3,79.9,73.4,68.0,100,86,55,30.20,30.05,12,1,12,0.00
2013-7-18,89.2,79.1,71.7,78.6,73.8,70.9,98,85,62,30.08,29.91,8,0,8,0.00
2013-7-19,88.0,78.4,68.4,78.0,73.5,68.1,100,86,63,29.99,29.82,6,0,6,0.00
2013-7-20,87.8,78.6,69.3,77.5,73.6,69.0,100,86,64,29.90,29.75,10,0,10,0.00
2013-7-21,83.0,73.8,70.6,77.1,72.2,69.1,99,95,75,29.89,29.81,17,0,17,0.50
2013-7-22,77.0,72.6,69.0,74.2,71.2,68.7,99,96,84,29.88,29.79,12,0,14,0.07
2013-7-23,75.2,72.6,72.0,72.4,71.7,70.9,98,97,91,29.78,29.74,2,0,2,0.03
2013-7-24,84.8,75.3,70.1,76.2,71.9,69.9,100,90,70,29.79,29.71,9,0,9,0.00
2013-7-25,81.7,73.8,60.3,70.4,66.4,59.7,99,79,58,29.96,29.85,13,2,13,0.00
2013-7-26,84.1,72.0,59.1,71.3,66.0,58.5,100,83,56,30.01,29.89,11,0,12,0.00
2013-7-27,82.5,72.9,66.2,73.6,69.0,65.7,100,89,68,29.90,29.77,8,0,8,0.00
2013-7-28,77.6,69.0,61.1,68.4,64.1,60.3,99,85,62,30.03,29.83,7,1,12,0.00
2013-7-29,79.7,67.0,56.0,65.3,60.0,54.7,100,81,48,30.16,30.02,12,1,12,0.00
2013-7-30,86.1,72.3,60.2,75.6,67.0,59.6,99,85,54,30.17,30.00,14,0,14,0.31
2013-7-31,81.0,71.1,66.9,76.3,69.7,66.3,99,95,82,30.07,29.85,6,0,13,0.87
2013-8-1,82.6,73.7,65.5,73.5,70.0,64.9,100,89,68,29.93,29.84,12,1,13,0.01
2013-8-2,84.5,72.1,60.7,73.6,67.0,60.4,100,86,56,29.97,29.90,7,0,7,0.00
2013-8-3,71.7,67.2,65.3,70.5,66.8,65.0,100,99,96,29.97,29.90,0,0,0,0.00
2013-8-4,82.5,73.6,64.7,72.5,67.0,62.6,94,81,65,30.01,29.93,11,1,12,0.00
2013-8-5,82.0,71.2,62.4,71.1,65.5,61.0,97,84,51,30.01,29.88,6,0,6,0.00
2013-8-6,80.5,73.1,67.0,76.8,71.7,66.4,100,95,86,29.91,29.84,8,0,8,0.15
2013-8-7,77.5,72.2,69.8,76.2,71.9,69.3,100,99,91,29.93,29.82,16,0,16,0.63
2013-8-8,84.1,73.6,68.8,79.5,72.0,68.8,100,95,75,29.93,29.84,13,0,13,0.00
2013-8-9,73.5,73.5,73.5,73.2,73.2,73.2,99,99,99,29.95,29.95,0,0,0,0.00
2013-8-10,87.0,76.0,69.5,78.9,73.9,69.5,100,94,73,30.02,29.93,8,0,12,0.15
2013-8-11,87.7,76.6,70.6,79.4,74.5,70.6,100,94,71,30.04,29.93,8,0,10,0.30
2013-8-12,85.2,74.7,69.7,79.5,73.7,69.7,100,97,78,30.00,29.81,13,0,13,0.14
2013-8-13,81.8,73.6,68.7,75.7,71.9,68.4,100,95,70,29.90,29.79,14,0,14,0.07
2013-8-14,75.7,68.7,60.5,68.4,63.3,57.0,99,84,61,30.01,29.85,16,3,16,0.00
2013-8-15,79.0,66.9,56.3,71.1,62.9,55.0,98,88,72,30.03,29.94,9,0,9,0.00
2013-8-16,76.2,66.9,60.1,68.7,64.0,59.6,99,91,73,30.05,29.98,9,0,9,0.00
2013-8-17,72.8,67.9,64.5,67.7,65.5,63.6,99,92,83,30.08,30.01,8,0,8,0.01
2013-8-18,74.1,68.7,64.6,71.3,67.3,63.1,98,95,86,30.11,30.02,6,0,6,0.27
2013-8-19,79.3,71.3,63.8,74.0,69.1,63.4,100,93,78,30.08,29.96,8,0,8,0.05
2013-8-20,85.2,74.4,66.4,77.1,71.6,66.1,100,92,69,30.07,29.97,10,0,10,0.08
2013-8-21,81.8,73.0,67.0,76.2,71.1,66.8,100,94,78,30.12,30.01,9,0,9,0.03
2013-8-22,87.2,75.2,65.0,77.2,71.3,65.0,100,89,65,30.11,29.92,8,0,8,0.00
2013-8-23,86.7,75.0,64.6,76.9,70.4,64.4,100,87,62,30.01,29.88,8,0,8,0.00
2013-8-24,87.0,73.8,64.6,75.9,70.1,64.3,100,89,62,30.13,29.98,11,0,11,0.07
2013-8-25,84.3,73.0,63.5,70.6,67.0,62.6,100,83,55,30.27,30.13,13,0,13,0.00
2013-8-26,84.5,70.5,58.8,71.4,65.1,58.5,100,85,56,30.27,30.08,6,0,6,0.00
2013-8-27,79.2,65.8,59.9,70.3,64.4,59.6,100,96,68,30.12,29.99,7,0,7,0.01
2013-8-28,87.8,75.0,63.3,75.7,70.4,63.0,100,87,60,30.01,29.89,9,0,9,0.00
2013-8-29,89.8,77.3,66.0,78.8,73.0,65.7,100,88,62,29.95,29.82,9,0,9,0.00
2013-8-30,89.6,79.0,69.8,80.5,75.1,69.8,100,89,67,29.89,29.75,8,0,8,0.00
2013-8-31,88.8,76.9,69.1,77.7,73.4,68.8,100,90,60,29.83,29.72,7,0,12,0.00
2013-9-1,81.8,75.3,70.5,75.1,72.0,69.2,100,90,70,29.81,29.72,11,0,11,0.01
2013-9-2,72.7,72.1,71.8,71.8,71.3,70.9,98,97,97,29.80,29.77,1,0,1,0.00
2013-9-3,84.8,75.7,64.5,73.3,69.5,63.4,100,83,54,29.93,29.77,10,1,10,0.01
2013-9-4,82.7,69.8,58.8,69.2,63.5,58.5,100,83,52,30.08,29.92,18,1,18,0.00
2013-9-5,83.0,68.8,56.7,67.8,62.6,56.4,100,83,45,30.12,30.05,12,1,12,0.01
2013-9-6,86.5,71.0,57.3,72.0,65.0,57.0,100,84,54,30.11,29.98,6,0,8,0.01
2013-9-7,87.6,71.9,59.2,72.8,66.4,58.9,100,85,51,30.04,29.90,9,0,9,0.00
2013-9-8,87.6,73.4,62.2,74.2,68.5,61.9,100,86,56,29.95,29.84,9,0,9,0.00
2013-9-9,89.8,75.6,65.6,76.2,70.5,65.3,100,86,55,30.00,29.89,9,0,9,0.00
2013-9-10,89.7,76.1,67.6,75.4,70.8,67.0,100,85,55,30.10,29.99,11,0,11,0.00
2013-9-11,88.0,74.5,64.4,74.8,69.1,64.1,100,86,57,30.13,30.02,7,0,7,0.00
2013-9-13,75.9,68.2,57.5,66.7,59.8,51.2,100,76,45,29.95,29.83,16,2,16,0.01
2013-9-14,76.2,61.2,47.9,61.5,54.2,46.5,96,79,54,30.07,29.93,14,1,14,0.00
2013-9-15,81.2,65.1,49.9,67.3,59.4,49.4,100,84,55,30.13,30.05,12,0,12,0.00
2013-9-16,82.4,66.8,52.4,67.8,60.1,52.0,100,82,48,30.14,30.07,12,0,12,0.01
2013-9-17,83.3,70.2,60.3,70.3,65.5,59.7,99,87,58,30.13,30.01,8,0,14,0.17
2013-9-18,79.3,69.5,63.0,70.1,64.5,60.5,98,85,69,30.14,30.02,12,0,12,0.00
2013-9-19,83.7,70.6,61.6,71.3,65.7,60.9,99,86,61,30.12,29.95,11,0,11,0.01
2013-9-20,84.6,71.9,60.6,70.7,66.2,60.3,100,84,59,30.00,29.74,12,0,12,0.05
2013-9-21,70.0,64.7,55.8,69.4,62.2,53.7,99,92,69,29.81,29.61,13,0,13,1.86
2013-9-22,73.7,60.2,47.6,58.5,53.7,47.1,100,82,52,29.92,29.80,21,2,21,0.01
2013-9-23,80.2,63.2,49.0,66.7,57.7,48.7,100,84,53,29.98,29.90,10,0,10,0.01
2013-9-24,74.7,64.3,52.6,67.8,61.7,52.3,100,92,78,29.97,29.80,16,1,16,0.01
2013-9-25,73.3,66.5,60.3,69.1,65.3,59.9,99,96,85,29.81,29.73,8,0,8,0.21
2013-9-26,79.3,68.2,58.2,67.6,63.4,57.1,100,86,60,29.98,29.81,11,1,11,0.00
2013-9-27,82.0,65.1,51.9,67.2,59.9,51.6,100,85,52,30.10,29.97,12,0,12,0.00
2013-9-28,78.5,64.1,54.2,64.7,58.3,53.9,100,84,51,30.18,30.05,9,0,9,0.01
2013-9-29,72.7,61.6,51.0,62.5,57.8,50.5,100,88,62,30.11,29.98,8,0,8,0.02
2013-9-30,75.5,65.4,57.5,63.4,60.5,56.9,99,85,59,30.05,29.94,6,0,10,0.00
2013-10-1,61.6,59.1,57.3,60.0,58.4,56.5,99,97,95,30.07,29.99,0,0,0,0.00
2013-10-2,80.0,72.3,61.6,71.2,67.9,61.3,100,87,65,30.11,29.99,6,0,6,0.00
2013-10-3,82.9,70.8,61.0,69.3,65.3,60.2,100,85,53,30.05,29.94,5,0,12,0.01
2013-10-4,82.7,68.7,58.7,72.9,65.6,58.4,100,91,66,30.09,29.99,8,0,8,0.02
2013-10-5,86.7,71.9,61.3,73.5,66.9,61.0,100,86,59,30.04,29.85,12,0,12,0.01
2013-10-6,78.4,67.3,54.1,72.8,64.3,53.0,100,90,74,29.90,29.67,14,0,14,1.30
2013-10-7,65.4,56.3,48.4,54.5,50.6,46.8,99,83,58,30.12,29.85,19,2,19,0.01
2013-10-8,72.5,58.7,46.4,57.0,51.7,44.8,98,79,55,30.16,30.08,16,2,16,0.01
2013-10-9,77.8,64.5,53.5,65.1,58.9,52.3,98,84,60,30.18,30.07,10,0,10,0.00
2013-10-10,77.3,66.3,54.4,65.9,60.0,53.5,100,82,54,30.14,30.00,10,0,10,0.00
2013-10-11,77.4,60.8,48.5,62.3,55.6,48.1,100,85,52,30.10,29.99,9,0,9,0.01
2013-10-12,77.8,61.0,47.0,65.0,56.5,46.5,100,87,55,30.13,30.03,8,0,8,0.00
2013-10-13,78.3,63.3,51.9,64.4,57.2,51.6,100,83,50,30.23,30.12,15,1,15,0.01
2013-10-14,78.2,66.3,55.7,66.3,61.2,54.9,100,85,59,30.21,30.05,11,1,11,0.01
2013-10-15,71.5,65.0,60.5,63.0,60.6,58.5,99,86,71,30.09,29.97,11,0,11,0.00
2013-10-16,65.9,63.1,60.5,64.9,61.9,59.2,100,96,90,30.00,29.88,5,0,6,0.48
2013-10-17,63.5,61.1,56.6,62.9,60.9,56.0,100,100,98,29.93,29.84,13,0,13,0.06
2013-10-18,48.3,47.9,47.6,47.8,47.4,47.1,98,98,98,30.07,30.05,0,0,0,0.02
2013-10-19,62.6,50.6,38.4,56.4,48.6,37.7,100,93,75,30.13,29.95,14,0,14,0.00
2013-10-20,63.9,45.2,33.7,46.2,38.5,33.1,100,82,36,30.22,30.12,8,0,8,0.01
2013-10-21,68.8,50.4,34.0,52.5,43.8,33.5,100,82,43,30.22,30.05,10,0,10,0.00
2013-10-22,58.4,51.3,41.5,53.9,49.5,41.0,99,94,84,30.08,29.92,9,0,9,0.00
2013-10-23,50.4,44.9,42.3,45.5,41.4,36.5,99,88,60,30.16,29.91,17,2,17,0.01
2013-10-25,40.1,31.3,27.6,31.0,28.5,26.3,95,90,69,30.56,30.53,0,0,0,0.00
2013-10-26,59.2,42.3,23.0,44.8,32.3,21.8,97,72,37,30.53,30.25,14,1,14,0.01
2013-10-27,64.0,55.1,48.7,56.5,50.3,44.1,94,84,73,30.25,30.11,8,0,8,0.00
2013-10-28,61.3,56.1,51.2,58.2,54.4,50.4,99,94,87,30.31,30.14,3,0,6,0.03
2013-10-29,73.1,59.3,47.0,61.7,55.5,46.6,100,88,64,30.36,30.20,8,0,11,0.00
2013-10-30,76.7,63.2,54.8,63.0,57.9,54.2,100,85,51,30.26,30.06,11,0,11,0.00
2013-10-31,70.5,66.1,61.7,65.3,60.7,55.8,95,83,74,30.05,29.54,18,3,30,0.39
2013-11-1,69.5,58.6,46.3,62.4,51.5,43.8,99,80,42,29.84,29.63,21,0,21,0.06
2013-11-2,63.2,49.4,38.7,49.2,42.5,37.9,99,79,44,30.23,29.82,16,1,16,0.00
2013-11-3,56.9,43.6,32.5,41.7,37.1,31.6,98,80,47,30.42,30.21,14,1,20,0.00
2013-11-4,65.5,50.0,32.0,47.3,38.5,31.0,99,69,37,30.53,30.41,19,1,19,0.01
2013-11-5,65.0,54.4,45.1,45.9,42.0,37.5,90,64,45,30.47,30.31,13,0,13,0.00
2013-11-6,72.2,60.2,42.4,60.7,54.9,40.0,98,84,66,30.32,30.05,15,1,15,0.40
2013-11-7,59.5,44.9,31.1,58.9,39.0,29.2,98,82,49,30.44,30.03,20,2,20,0.23
2013-11-8,54.5,39.4,27.1,35.2,29.2,25.7,97,71,34,30.58,30.42,17,2,17,0.00
2013-11-9,58.7,45.1,28.8,42.0,35.1,27.5,97,72,41,30.48,30.33,11,0,11,0.00
2013-11-10,64.8,49.5,36.6,47.3,39.5,30.7,96,71,38,30.44,30.35,12,1,12,0.00
2013-11-11,67.8,48.0,28.8,40.4,31.4,19.2,95,61,17,30.43,30.26,8,0,8,0.00
2013-11-12,50.8,38.9,29.2,44.5,28.7,15.4,94,68,42,30.76,30.25,26,6,26,0.01
2013-11-13,43.7,31.0,21.5,22.9,20.0,17.2,87,66,35,30.92,30.69,18,2,18,0.00
2013-11-14,57.7,35.9,18.8,30.2,21.6,17.0,94,63,23,30.72,30.42,13,0,13,0.00
2013-11-15,54.9,49.0,30.9,50.2,41.4,25.5,99,77,49,30.42,30.19,12,1,12,0.15
2013-11-16,65.4,58.0,49.4,59.2,55.1,48.9,98,90,79,30.22,30.03,17,3,17,0.00
2013-11-17,68.8,63.9,58.9,67.3,61.9,57.2,100,94,86,30.03,29.75,29,4,29,0.71
2013-11-18,61.0,53.1,42.8,58.2,42.7,33.3,99,70,38,30.25,29.89,16,2,16,0.00
2013-11-19,50.2,43.1,36.5,32.4,30.1,27.7,75,61,44,30.37,30.26,20,5,20,0.00
2013-11-20,59.9,45.0,28.4,39.7,32.6,26.7,96,66,34,30.42,30.29,19,1,19,0.00
2013-11-21,61.9,55.8,45.4,53.8,48.4,39.5,87,76,70,30.39,30.26,15,3,15,0.00
2013-11-22,60.5,55.3,47.0,59.1,54.0,46.2,98,95,86,30.33,30.22,16,2,16,0.20
2013-11-23,47.0,40.0,26.4,46.2,34.9,20.0,98,83,53,30.64,30.30,24,5,24,0.00
2013-11-24,34.4,27.3,21.0,20.4,14.8,9.9,82,61,37,30.84,30.63,20,6,20,0.00
2013-11-25,41.5,34.0,23.5,36.0,23.5,13.6,96,68,33,30.71,30.34,13,1,13,0.32
2013-11-26,44.9,38.1,32.7,44.5,37.3,31.0,99,97,93,30.35,29.92,20,3,20,1.54
2013-11-27,32.9,27.5,17.6,31.0,20.9,13.6,93,76,55,30.60,30.04,22,4,22,0.00
2013-11-28,43.9,26.4,13.8,22.8,17.9,11.9,93,74,35,30.78,30.59,8,0,8,0.00
2013-11-29,51.2,32.9,19.7,29.8,23.9,18.0,95,73,40,30.85,30.68,11,1,11,0.00
2013-11-30,55.9,40.0,24.6,31.7,27.7,22.6,94,65,32,30.69,30.42,12,2,16,0.00
2013-12-1,54.9,42.9,26.8,41.8,34.0,24.3,95,73,53,30.42,30.07,12,1,12,0.00
2013-12-2,51.1,48.7,45.6,50.6,47.7,41.6,99,96,75,30.08,29.82,7,0,7,0.05
2013-12-3,58.4,53.1,48.6,55.2,51.9,47.6,99,96,89,29.88,29.79,12,1,12,0.00
2013-12-4,72.8,64.6,55.1,62.7,60.0,54.6,99,86,65,29.90,29.79,23,4,23,0.00
2013-12-5,73.4,60.4,40.4,67.0,57.6,39.5,100,91,74,30.03,29.79,18,2,18,0.02
2013-12-6,41.9,37.5,33.2,41.4,36.6,32.2,100,97,95,30.47,29.97,19,4,19,1.62
2013-12-7,33.2,31.8,30.5,32.2,30.4,29.5,98,95,91,30.67,30.47,17,7,21,0.00
2013-12-8,49.1,40.8,32.8,48.7,40.3,31.3,100,98,94,30.51,30.18,11,1,12,0.96
2013-12-9,48.7,38.5,32.6,48.3,37.8,31.8,99,98,95,30.33,30.18,16,2,16,0.30
2013-12-10,35.8,29.7,22.3,31.9,28.1,21.2,97,94,80,30.63,30.19,12,1,16,0.11
2013-12-11,48.6,31.8,18.0,33.5,25.3,16.8,97,80,43,30.74,30.61,12,0,12,0.00
2013-12-12,38.3,26.8,20.1,24.0,19.8,16.8,92,77,44,30.83,30.68,16,2,16,0.00
2013-12-13,47.8,34.3,17.0,30.2,22.5,15.3,100,66,30,30.68,30.26,11,0,11,0.01
2013-12-14,51.4,45.6,35.8,50.9,42.6,25.5,98,90,46,30.27,29.85,17,2,17,0.46
2013-12-15,35.8,32.3,30.1,34.7,30.0,28.0,100,91,86,30.43,30.06,18,1,18,0.02
2013-12-16,52.9,37.7,28.2,38.4,32.2,26.9,96,82,55,30.46,30.30,13,1,13,0.00
2013-12-17,57.5,42.8,28.5,40.6,33.3,24.8,89,70,51,30.42,30.19,20,1,20,0.00
2013-12-18,50.5,34.3,21.5,31.7,24.0,18.9,96,70,30,30.55,30.41,5,0,8,0.00
2013-12-19,60.3,46.2,28.6,35.5,29.3,24.0,86,55,30,30.45,30.21,18,2,18,0.00
2013-12-20,62.7,57.2,52.0,57.2,49.0,30.7,93,75,44,30.20,29.97,14,3,14,0.06
2013-12-21,72.3,66.1,60.5,66.5,62.5,57.2,97,88,80,29.97,29.64,29,6,29,1.01
2013-12-22,60.4,55.7,52.4,58.9,54.7,51.6,98,96,93,30.08,29.69,18,1,29,1.08
2013-12-23,52.8,36.1,29.2,52.2,32.8,25.5,98,88,76,30.61,30.06,21,4,21,0.05
2013-12-24,33.1,27.2,19.7,25.8,19.7,14.7,87,74,51,30.77,30.60,17,2,17,0.00
2013-12-25,46.4,29.7,16.7,27.4,22.1,14.8,95,76,42,30.73,30.55,14,0,14,0.00
2013-12-26,45.4,31.5,21.8,33.2,25.9,20.3,96,81,50,30.64,30.54,11,1,11,0.00
2013-12-27,53.6,33.9,20.5,33.1,23.2,19.0,96,71,27,30.71,30.58,8,0,8,0.00
2013-12-28,48.2,36.3,25.4,40.9,32.6,22.4,98,87,49,30.58,30.06,9,0,9,0.41
2013-12-29,50.7,42.1,37.5,43.4,40.1,35.3,99,93,71,30.24,30.03,13,0,13,0.22
2013-12-30,37.6,32.5,29.6,35.4,30.0,27.6,95,90,84,30.49,30.22,13,2,13,0.00
2013-12-31,40.4,29.0,21.8,29.6,25.2,20.6,97,87,60,30.74,30.47,8,0,12,0.00
2014-1-1,50.2,34.9,19.5,38.8,27.5,18.3,98,77,45,30.60,30.18,14,1,14,0.00
2014-1-2,46.4,34.6,19.6,45.9,31.7,13.3,98,89,74,30.51,29.93,23,4,26,0.01